sensor_id;sensor_type;location;lat;lon;timestamp;P1;durP1;ratioP1;P2;durP2;ratioP2
47617;SDS011;33336;36.728;-4.414;2023-11-21T00:00:45;11.48;;;3.13;;
47617;SDS011;33336;36.728;-4.414;2023-11-21T00:05:49;4.35;;;3.25;;
47617;SDS011;33336;36.728;-4.414;2023-11-21T00:10:54;4.45;;;3.15;;
47617;SDS011;33336;36.728;-4.414;2023-11-21T00:15:57;5.75;;;3.35;;
47617;SDS011;33336;36.728;-4.414;2023-11-21T00:21:03;9.20;;;3.53;;
47617;SDS011;33336;36.728;-4.414;2023-11-21T00:26:05;4.43;;;3.85;;
47617;SDS011;33336;36.728;-4.414;2023-11-21T00:31:10;9.38;;;4.07;;
47617;SDS011;33336;36.728;-4.414;2023-11-21T00:36:14;10.90;;;4.75;;
47617;SDS011;33336;36.728;-4.414;2023-11-21T00:41:18;8.10;;;4.72;;
47617;SDS011;33336;36.728;-4.414;2023-11-21T00:46:21;10.20;;;4.05;;
47617;SDS011;33336;36.728;-4.414;2023-11-21T00:51:27;4.55;;;4.15;;
47617;SDS011;33336;36.728;-4.414;2023-11-21T00:56:30;6.55;;;4.05;;
47617;SDS011;33336;36.728;-4.414;2023-11-21T01:01:34;6.45;;;4.00;;
47617;SDS011;33336;36.728;-4.414;2023-11-21T01:06:39;8.48;;;4.07;;
47617;SDS011;33336;36.728;-4.414;2023-11-21T01:11:44;6.45;;;4.38;;
47617;SDS011;33336;36.728;-4.414;2023-11-21T01:16:47;5.13;;;3.95;;
47617;SDS011;33336;36.728;-4.414;2023-11-21T01:21:52;8.25;;;4.20;;
47617;SDS011;33336;36.728;-4.414;2023-11-21T01:26:55;6.20;;;3.83;;
47617;SDS011;33336;36.728;-4.414;2023-11-21T01:31:58;5.95;;;3.83;;
47617;SDS011;33336;36.728;-4.414;2023-11-21T01:37:02;4.93;;;3.38;;
47617;SDS011;33336;36.728;-4.414;2023-11-21T01:42:07;6.68;;;3.80;;
47617;SDS011;33336;36.728;-4.414;2023-11-21T01:47:10;5.55;;;3.50;;
47617;SDS011;33336;36.728;-4.414;2023-11-21T01:52:16;9.98;;;4.25;;
47617;SDS011;33336;36.728;-4.414;2023-11-21T01:57:19;7.05;;;3.47;;
47617;SDS011;33336;36.728;-4.414;2023-11-21T02:02:23;5.43;;;3.67;;
47617;SDS011;33336;36.728;-4.414;2023-11-21T02:07:27;5.40;;;3.20;;
47617;SDS011;33336;36.728;-4.414;2023-11-21T02:12:32;7.50;;;4.50;;
47617;SDS011;33336;36.728;-4.414;2023-11-21T02:17:34;9.65;;;3.42;;
47617;SDS011;33336;36.728;-4.414;2023-11-21T02:22:40;8.63;;;5.15;;
47617;SDS011;33336;36.728;-4.414;2023-11-21T02:27:44;5.85;;;4.72;;
47617;SDS011;33336;36.728;-4.414;2023-11-21T02:32:51;5.60;;;4.20;;
47617;SDS011;33336;36.728;-4.414;2023-11-21T02:37:54;9.25;;;4.60;;
47617;SDS011;33336;36.728;-4.414;2023-11-21T02:43:00;6.10;;;4.38;;
47617;SDS011;33336;36.728;-4.414;2023-11-21T02:48:03;7.93;;;4.55;;
47617;SDS011;33336;36.728;-4.414;2023-11-21T02:53:07;6.47;;;4.20;;
47617;SDS011;33336;36.728;-4.414;2023-11-21T02:58:12;6.35;;;4.38;;
47617;SDS011;33336;36.728;-4.414;2023-11-21T03:03:16;12.27;;;4.65;;
47617;SDS011;33336;36.728;-4.414;2023-11-21T03:08:19;7.68;;;4.53;;
47617;SDS011;33336;36.728;-4.414;2023-11-21T03:13:24;8.50;;;4.53;;
47617;SDS011;33336;36.728;-4.414;2023-11-21T03:18:27;5.35;;;4.63;;
47617;SDS011;33336;36.728;-4.414;2023-11-21T03:23:31;4.75;;;4.35;;
47617;SDS011;33336;36.728;-4.414;2023-11-21T03:28:36;10.18;;;5.00;;
47617;SDS011;33336;36.728;-4.414;2023-11-21T03:33:39;9.85;;;5.22;;
47617;SDS011;33336;36.728;-4.414;2023-11-21T03:38:42;7.45;;;5.07;;
47617;SDS011;33336;36.728;-4.414;2023-11-21T03:43:48;6.65;;;5.10;;
47617;SDS011;33336;36.728;-4.414;2023-11-21T03:48:50;6.18;;;4.82;;
47617;SDS011;33336;36.728;-4.414;2023-11-21T03:53:54;6.30;;;5.43;;
47617;SDS011;33336;36.728;-4.414;2023-11-21T03:58:58;6.20;;;4.93;;
47617;SDS011;33336;36.728;-4.414;2023-11-21T04:04:03;8.05;;;5.47;;
47617;SDS011;33336;36.728;-4.414;2023-11-21T04:09:06;9.70;;;5.18;;
47617;SDS011;33336;36.728;-4.414;2023-11-21T04:14:11;6.00;;;4.88;;
47617;SDS011;33336;36.728;-4.414;2023-11-21T04:19:14;9.10;;;5.22;;
47617;SDS011;33336;36.728;-4.414;2023-11-21T04:24:18;6.32;;;5.18;;
47617;SDS011;33336;36.728;-4.414;2023-11-21T04:29:22;8.95;;;5.00;;
47617;SDS011;33336;36.728;-4.414;2023-11-21T04:34:26;7.50;;;5.30;;
47617;SDS011;33336;36.728;-4.414;2023-11-21T04:39:31;6.63;;;5.25;;
47617;SDS011;33336;36.728;-4.414;2023-11-21T04:44:36;7.68;;;4.85;;
47617;SDS011;33336;36.728;-4.414;2023-11-21T04:49:41;6.20;;;5.05;;
47617;SDS011;33336;36.728;-4.414;2023-11-21T04:54:46;8.02;;;4.75;;
47617;SDS011;33336;36.728;-4.414;2023-11-21T04:59:50;6.07;;;5.05;;
47617;SDS011;33336;36.728;-4.414;2023-11-21T05:04:54;8.55;;;5.35;;
47617;SDS011;33336;36.728;-4.414;2023-11-21T05:09:57;7.65;;;5.18;;
47617;SDS011;33336;36.728;-4.414;2023-11-21T05:15:02;6.30;;;5.35;;
47617;SDS011;33336;36.728;-4.414;2023-11-21T05:20:10;7.72;;;5.07;;
47617;SDS011;33336;36.728;-4.414;2023-11-21T05:25:17;7.10;;;5.15;;
47617;SDS011;33336;36.728;-4.414;2023-11-21T05:30:21;7.03;;;5.60;;
47617;SDS011;33336;36.728;-4.414;2023-11-21T05:35:25;6.82;;;5.72;;
47617;SDS011;33336;36.728;-4.414;2023-11-21T05:40:28;11.25;;;6.32;;
47617;SDS011;33336;36.728;-4.414;2023-11-21T05:45:34;9.57;;;5.35;;
47617;SDS011;33336;36.728;-4.414;2023-11-21T05:50:37;5.80;;;4.90;;
47617;SDS011;33336;36.728;-4.414;2023-11-21T05:55:42;7.45;;;5.40;;
47617;SDS011;33336;36.728;-4.414;2023-11-21T06:00:46;8.27;;;5.78;;
47617;SDS011;33336;36.728;-4.414;2023-11-21T06:05:50;8.02;;;5.63;;
47617;SDS011;33336;36.728;-4.414;2023-11-21T06:10:53;8.90;;;6.00;;
47617;SDS011;33336;36.728;-4.414;2023-11-21T06:15:57;7.82;;;5.50;;
47617;SDS011;33336;36.728;-4.414;2023-11-21T06:21:01;9.32;;;5.75;;
47617;SDS011;33336;36.728;-4.414;2023-11-21T06:26:05;9.77;;;6.03;;
47617;SDS011;33336;36.728;-4.414;2023-11-21T06:31:11;7.72;;;6.10;;
47617;SDS011;33336;36.728;-4.414;2023-11-21T06:36:15;9.73;;;6.10;;
47617;SDS011;33336;36.728;-4.414;2023-11-21T06:41:19;10.27;;;7.05;;
47617;SDS011;33336;36.728;-4.414;2023-11-21T06:46:24;8.30;;;6.53;;
47617;SDS011;33336;36.728;-4.414;2023-11-21T06:51:27;7.93;;;6.97;;
47617;SDS011;33336;36.728;-4.414;2023-11-21T06:56:32;11.52;;;7.53;;
47617;SDS011;33336;36.728;-4.414;2023-11-21T07:01:36;9.65;;;7.50;;
47617;SDS011;33336;36.728;-4.414;2023-11-21T07:06:41;12.35;;;8.00;;
47617;SDS011;33336;36.728;-4.414;2023-11-21T07:11:44;12.18;;;7.45;;
47617;SDS011;33336;36.728;-4.414;2023-11-21T07:16:49;10.07;;;7.13;;
47617;SDS011;33336;36.728;-4.414;2023-11-21T07:21:53;9.50;;;7.53;;
47617;SDS011;33336;36.728;-4.414;2023-11-21T07:26:57;10.02;;;6.60;;
47617;SDS011;33336;36.728;-4.414;2023-11-21T07:32:03;9.55;;;6.72;;
47617;SDS011;33336;36.728;-4.414;2023-11-21T07:37:07;8.35;;;6.90;;
47617;SDS011;33336;36.728;-4.414;2023-11-21T07:42:10;11.77;;;7.35;;
47617;SDS011;33336;36.728;-4.414;2023-11-21T07:47:16;9.45;;;7.00;;
47617;SDS011;33336;36.728;-4.414;2023-11-21T07:52:19;8.43;;;5.88;;
47617;SDS011;33336;36.728;-4.414;2023-11-21T07:57:23;8.63;;;4.25;;
47617;SDS011;33336;36.728;-4.414;2023-11-21T08:02:27;7.82;;;4.88;;
47617;SDS011;33336;36.728;-4.414;2023-11-21T08:07:31;6.75;;;5.18;;
47617;SDS011;33336;36.728;-4.414;2023-11-21T08:12:34;5.40;;;4.80;;
47617;SDS011;33336;36.728;-4.414;2023-11-21T08:17:38;7.97;;;4.80;;
47617;SDS011;33336;36.728;-4.414;2023-11-21T08:22:41;3.92;;;3.53;;
47617;SDS011;33336;36.728;-4.414;2023-11-21T08:27:44;7.32;;;4.72;;
47617;SDS011;33336;36.728;-4.414;2023-11-21T08:32:49;5.63;;;4.15;;
47617;SDS011;33336;36.728;-4.414;2023-11-21T08:37:53;5.30;;;3.72;;
47617;SDS011;33336;36.728;-4.414;2023-11-21T08:42:56;6.80;;;3.70;;
47617;SDS011;33336;36.728;-4.414;2023-11-21T08:48:03;5.63;;;3.25;;
47617;SDS011;33336;36.728;-4.414;2023-11-21T08:53:06;7.10;;;4.38;;
47617;SDS011;33336;36.728;-4.414;2023-11-21T08:58:10;5.50;;;4.13;;
47617;SDS011;33336;36.728;-4.414;2023-11-21T09:03:14;4.28;;;3.72;;
47617;SDS011;33336;36.728;-4.414;2023-11-21T09:08:18;5.85;;;3.83;;
47617;SDS011;33336;36.728;-4.414;2023-11-21T09:13:22;5.43;;;4.22;;
47617;SDS011;33336;36.728;-4.414;2023-11-21T09:18:28;6.88;;;3.25;;
47617;SDS011;33336;36.728;-4.414;2023-11-21T09:23:31;8.85;;;4.03;;
47617;SDS011;33336;36.728;-4.414;2023-11-21T09:28:35;4.57;;;4.00;;
47617;SDS011;33336;36.728;-4.414;2023-11-21T09:33:41;4.40;;;3.75;;
47617;SDS011;33336;36.728;-4.414;2023-11-21T09:38:45;4.30;;;3.90;;
47617;SDS011;33336;36.728;-4.414;2023-11-21T09:43:51;6.82;;;4.20;;
47617;SDS011;33336;36.728;-4.414;2023-11-21T09:49:02;4.20;;;3.55;;
47617;SDS011;33336;36.728;-4.414;2023-11-21T09:54:09;6.25;;;4.05;;
47617;SDS011;33336;36.728;-4.414;2023-11-21T09:59:14;5.63;;;3.20;;
47617;SDS011;33336;36.728;-4.414;2023-11-21T10:04:19;8.52;;;3.10;;
47617;SDS011;33336;36.728;-4.414;2023-11-21T10:09:23;5.35;;;3.80;;
47617;SDS011;33336;36.728;-4.414;2023-11-21T10:14:27;4.72;;;3.80;;
47617;SDS011;33336;36.728;-4.414;2023-11-21T10:19:33;4.53;;;3.67;;
47617;SDS011;33336;36.728;-4.414;2023-11-21T10:24:37;8.23;;;4.00;;
47617;SDS011;33336;36.728;-4.414;2023-11-21T10:29:40;4.43;;;3.35;;
47617;SDS011;33336;36.728;-4.414;2023-11-21T10:34:55;4.32;;;3.60;;
47617;SDS011;33336;36.728;-4.414;2023-11-21T10:39:58;5.05;;;3.17;;
47617;SDS011;33336;36.728;-4.414;2023-11-21T10:45:01;4.43;;;3.33;;
47617;SDS011;33336;36.728;-4.414;2023-11-21T10:50:13;3.85;;;3.40;;
47617;SDS011;33336;36.728;-4.414;2023-11-21T10:55:16;6.20;;;3.30;;
47617;SDS011;33336;36.728;-4.414;2023-11-21T11:00:20;5.65;;;2.95;;
47617;SDS011;33336;36.728;-4.414;2023-11-21T11:05:26;3.67;;;2.60;;
47617;SDS011;33336;36.728;-4.414;2023-11-21T11:10:31;5.32;;;3.30;;
47617;SDS011;33336;36.728;-4.414;2023-11-21T11:15:35;4.10;;;3.40;;
47617;SDS011;33336;36.728;-4.414;2023-11-21T11:20:40;6.03;;;3.75;;
47617;SDS011;33336;36.728;-4.414;2023-11-21T11:25:52;9.35;;;3.75;;
47617;SDS011;33336;36.728;-4.414;2023-11-21T11:31:13;7.28;;;3.80;;
47617;SDS011;33336;36.728;-4.414;2023-11-21T11:36:25;4.63;;;3.13;;
47617;SDS011;33336;36.728;-4.414;2023-11-21T11:41:31;5.75;;;2.03;;
47617;SDS011;33336;36.728;-4.414;2023-11-21T11:46:41;1.90;;;1.77;;
47617;SDS011;33336;36.728;-4.414;2023-11-21T11:51:49;3.95;;;2.22;;
47617;SDS011;33336;36.728;-4.414;2023-11-21T11:57:30;3.38;;;1.85;;
47617;SDS011;33336;36.728;-4.414;2023-11-21T12:02:35;2.90;;;1.48;;
47617;SDS011;33336;36.728;-4.414;2023-11-21T12:07:46;1.83;;;1.10;;
47617;SDS011;33336;36.728;-4.414;2023-11-21T12:12:52;1.70;;;1.10;;
47617;SDS011;33336;36.728;-4.414;2023-11-21T12:17:55;3.10;;;1.30;;
47617;SDS011;33336;36.728;-4.414;2023-11-21T12:23:01;3.75;;;1.92;;
47617;SDS011;33336;36.728;-4.414;2023-11-21T12:28:03;5.88;;;1.20;;
47617;SDS011;33336;36.728;-4.414;2023-11-21T12:33:07;1.35;;;1.17;;
47617;SDS011;33336;36.728;-4.414;2023-11-21T12:38:12;2.40;;;1.60;;
47617;SDS011;33336;36.728;-4.414;2023-11-21T12:43:17;1.40;;;1.20;;
47617;SDS011;33336;36.728;-4.414;2023-11-21T12:48:20;2.08;;;1.77;;
47617;SDS011;33336;36.728;-4.414;2023-11-21T12:53:27;7.82;;;1.88;;
47617;SDS011;33336;36.728;-4.414;2023-11-21T12:58:37;4.72;;;1.00;;
47617;SDS011;33336;36.728;-4.414;2023-11-21T13:03:42;2.63;;;2.08;;
47617;SDS011;33336;36.728;-4.414;2023-11-21T13:08:48;2.53;;;1.90;;
47617;SDS011;33336;36.728;-4.414;2023-11-21T13:13:51;4.40;;;1.73;;
47617;SDS011;33336;36.728;-4.414;2023-11-21T13:18:55;3.45;;;1.50;;
47617;SDS011;33336;36.728;-4.414;2023-11-21T13:24:01;3.03;;;1.75;;
47617;SDS011;33336;36.728;-4.414;2023-11-21T13:29:04;3.90;;;1.90;;
47617;SDS011;33336;36.728;-4.414;2023-11-21T13:34:08;2.22;;;1.73;;
47617;SDS011;33336;36.728;-4.414;2023-11-21T13:39:16;1.90;;;1.73;;
47617;SDS011;33336;36.728;-4.414;2023-11-21T13:44:20;4.18;;;1.60;;
47617;SDS011;33336;36.728;-4.414;2023-11-21T13:49:35;3.75;;;1.90;;
47617;SDS011;33336;36.728;-4.414;2023-11-21T13:54:43;3.13;;;1.87;;
47617;SDS011;33336;36.728;-4.414;2023-11-21T13:59:46;4.25;;;1.77;;
47617;SDS011;33336;36.728;-4.414;2023-11-21T14:04:50;2.00;;;1.80;;
47617;SDS011;33336;36.728;-4.414;2023-11-21T14:15:01;3.38;;;2.15;;
47617;SDS011;33336;36.728;-4.414;2023-11-21T14:20:06;3.25;;;2.55;;
47617;SDS011;33336;36.728;-4.414;2023-11-21T14:25:18;7.20;;;2.90;;
47617;SDS011;33336;36.728;-4.414;2023-11-21T14:30:23;2.65;;;2.40;;
47617;SDS011;33336;36.728;-4.414;2023-11-21T14:35:27;3.28;;;2.42;;
47617;SDS011;33336;36.728;-4.414;2023-11-21T14:40:34;2.72;;;1.88;;
47617;SDS011;33336;36.728;-4.414;2023-11-21T14:45:37;3.85;;;2.40;;
47617;SDS011;33336;36.728;-4.414;2023-11-21T14:50:40;4.50;;;2.95;;
47617;SDS011;33336;36.728;-4.414;2023-11-21T14:56:12;5.63;;;2.13;;
47617;SDS011;33336;36.728;-4.414;2023-11-21T15:01:23;4.25;;;2.17;;
47617;SDS011;33336;36.728;-4.414;2023-11-21T15:06:44;3.80;;;2.40;;
47617;SDS011;33336;36.728;-4.414;2023-11-21T15:11:50;2.55;;;2.35;;
47617;SDS011;33336;36.728;-4.414;2023-11-21T15:16:57;3.88;;;2.47;;
47617;SDS011;33336;36.728;-4.414;2023-11-21T15:22:01;3.75;;;1.73;;
47617;SDS011;33336;36.728;-4.414;2023-11-21T15:27:06;2.42;;;2.20;;
47617;SDS011;33336;36.728;-4.414;2023-11-21T15:32:10;4.45;;;2.80;;
47617;SDS011;33336;36.728;-4.414;2023-11-21T15:37:14;2.33;;;2.03;;
47617;SDS011;33336;36.728;-4.414;2023-11-21T15:42:18;2.72;;;2.30;;
47617;SDS011;33336;36.728;-4.414;2023-11-21T15:47:22;2.60;;;2.40;;
47617;SDS011;33336;36.728;-4.414;2023-11-21T15:52:25;3.30;;;2.55;;
47617;SDS011;33336;36.728;-4.414;2023-11-21T15:57:31;3.17;;;2.00;;
47617;SDS011;33336;36.728;-4.414;2023-11-21T16:02:34;3.70;;;2.05;;
47617;SDS011;33336;36.728;-4.414;2023-11-21T16:07:39;6.80;;;2.83;;
47617;SDS011;33336;36.728;-4.414;2023-11-21T16:12:44;2.65;;;2.20;;
47617;SDS011;33336;36.728;-4.414;2023-11-21T16:17:47;2.63;;;2.17;;
47617;SDS011;33336;36.728;-4.414;2023-11-21T16:22:49;4.90;;;2.70;;
47617;SDS011;33336;36.728;-4.414;2023-11-21T16:27:54;3.58;;;2.60;;
47617;SDS011;33336;36.728;-4.414;2023-11-21T16:33:00;4.22;;;2.10;;
47617;SDS011;33336;36.728;-4.414;2023-11-21T16:38:04;4.65;;;2.15;;
47617;SDS011;33336;36.728;-4.414;2023-11-21T16:43:09;4.07;;;2.65;;
47617;SDS011;33336;36.728;-4.414;2023-11-21T16:48:13;3.78;;;2.45;;
47617;SDS011;33336;36.728;-4.414;2023-11-21T16:53:16;4.45;;;2.53;;
47617;SDS011;33336;36.728;-4.414;2023-11-21T16:58:20;2.65;;;2.30;;
47617;SDS011;33336;36.728;-4.414;2023-11-21T17:03:23;2.40;;;2.17;;
47617;SDS011;33336;36.728;-4.414;2023-11-21T17:08:27;2.90;;;1.98;;
47617;SDS011;33336;36.728;-4.414;2023-11-21T17:13:31;3.63;;;2.78;;
47617;SDS011;33336;36.728;-4.414;2023-11-21T17:18:35;3.20;;;2.42;;
47617;SDS011;33336;36.728;-4.414;2023-11-21T17:23:38;3.50;;;2.58;;
47617;SDS011;33336;36.728;-4.414;2023-11-21T17:28:43;6.20;;;2.65;;
47617;SDS011;33336;36.728;-4.414;2023-11-21T17:33:45;3.17;;;2.88;;
47617;SDS011;33336;36.728;-4.414;2023-11-21T17:38:49;3.83;;;2.72;;
47617;SDS011;33336;36.728;-4.414;2023-11-21T17:43:55;4.63;;;3.00;;
47617;SDS011;33336;36.728;-4.414;2023-11-21T17:48:58;6.05;;;2.72;;
47617;SDS011;33336;36.728;-4.414;2023-11-21T17:54:01;5.82;;;3.10;;
47617;SDS011;33336;36.728;-4.414;2023-11-21T17:59:05;4.97;;;3.47;;
47617;SDS011;33336;36.728;-4.414;2023-11-21T18:04:09;3.78;;;2.97;;
47617;SDS011;33336;36.728;-4.414;2023-11-21T18:09:12;3.30;;;3.00;;
47617;SDS011;33336;36.728;-4.414;2023-11-21T18:14:17;4.25;;;3.10;;
47617;SDS011;33336;36.728;-4.414;2023-11-21T18:19:21;5.78;;;3.25;;
47617;SDS011;33336;36.728;-4.414;2023-11-21T18:24:24;3.53;;;2.80;;
47617;SDS011;33336;36.728;-4.414;2023-11-21T18:29:28;4.22;;;2.97;;
47617;SDS011;33336;36.728;-4.414;2023-11-21T18:34:31;4.10;;;2.92;;
47617;SDS011;33336;36.728;-4.414;2023-11-21T18:52:06;2.75;;;2.28;;
47617;SDS011;33336;36.728;-4.414;2023-11-21T18:57:10;5.25;;;4.10;;
47617;SDS011;33336;36.728;-4.414;2023-11-21T19:02:13;5.32;;;3.25;;
47617;SDS011;33336;36.728;-4.414;2023-11-21T19:07:17;7.80;;;3.33;;
47617;SDS011;33336;36.728;-4.414;2023-11-21T19:12:22;4.30;;;3.70;;
47617;SDS011;33336;36.728;-4.414;2023-11-21T19:17:25;4.30;;;3.28;;
47617;SDS011;33336;36.728;-4.414;2023-11-21T19:22:29;5.47;;;3.80;;
47617;SDS011;33336;36.728;-4.414;2023-11-21T19:27:35;5.95;;;3.88;;
47617;SDS011;33336;36.728;-4.414;2023-11-21T19:32:38;3.97;;;3.58;;
47617;SDS011;33336;36.728;-4.414;2023-11-21T19:37:42;6.90;;;3.55;;
47617;SDS011;33336;36.728;-4.414;2023-11-21T19:42:45;7.13;;;4.70;;
47617;SDS011;33336;36.728;-4.414;2023-11-21T19:47:48;4.95;;;4.15;;
47617;SDS011;33336;36.728;-4.414;2023-11-21T19:52:52;6.88;;;3.85;;
47617;SDS011;33336;36.728;-4.414;2023-11-21T19:57:56;5.38;;;3.92;;
47617;SDS011;33336;36.728;-4.414;2023-11-21T20:03:01;6.72;;;3.33;;
47617;SDS011;33336;36.728;-4.414;2023-11-21T20:08:06;4.88;;;4.22;;
47617;SDS011;33336;36.728;-4.414;2023-11-21T20:13:09;5.30;;;4.07;;
47617;SDS011;33336;36.728;-4.414;2023-11-21T20:18:13;7.85;;;3.42;;
47617;SDS011;33336;36.728;-4.414;2023-11-21T20:23:17;5.28;;;3.65;;
47617;SDS011;33336;36.728;-4.414;2023-11-21T20:28:22;4.75;;;4.13;;
47617;SDS011;33336;36.728;-4.414;2023-11-21T20:33:25;7.97;;;3.80;;
47617;SDS011;33336;36.728;-4.414;2023-11-21T20:38:30;5.30;;;3.67;;
47617;SDS011;33336;36.728;-4.414;2023-11-21T20:43:33;6.57;;;3.28;;
47617;SDS011;33336;36.728;-4.414;2023-11-21T20:48:36;6.18;;;3.60;;
47617;SDS011;33336;36.728;-4.414;2023-11-21T20:53:41;4.50;;;3.45;;
47617;SDS011;33336;36.728;-4.414;2023-11-21T20:58:45;7.22;;;4.22;;
47617;SDS011;33336;36.728;-4.414;2023-11-21T21:03:48;5.47;;;2.88;;
47617;SDS011;33336;36.728;-4.414;2023-11-21T21:08:53;3.38;;;2.67;;
47617;SDS011;33336;36.728;-4.414;2023-11-21T21:13:57;5.10;;;3.42;;
47617;SDS011;33336;36.728;-4.414;2023-11-21T21:19:00;3.28;;;2.80;;
47617;SDS011;33336;36.728;-4.414;2023-11-21T21:24:07;4.10;;;2.65;;
47617;SDS011;33336;36.728;-4.414;2023-11-21T21:29:11;2.97;;;2.60;;
47617;SDS011;33336;36.728;-4.414;2023-11-21T21:34:13;5.43;;;2.88;;
47617;SDS011;33336;36.728;-4.414;2023-11-21T21:39:19;3.20;;;2.13;;
47617;SDS011;33336;36.728;-4.414;2023-11-21T21:44:22;2.63;;;2.03;;
47617;SDS011;33336;36.728;-4.414;2023-11-21T21:49:26;3.75;;;2.55;;
47617;SDS011;33336;36.728;-4.414;2023-11-21T21:54:30;4.03;;;2.00;;
47617;SDS011;33336;36.728;-4.414;2023-11-21T21:59:34;2.15;;;1.70;;
47617;SDS011;33336;36.728;-4.414;2023-11-21T22:04:38;2.72;;;2.20;;
47617;SDS011;33336;36.728;-4.414;2023-11-21T22:09:43;3.25;;;1.60;;
47617;SDS011;33336;36.728;-4.414;2023-11-21T22:14:46;4.13;;;2.40;;
47617;SDS011;33336;36.728;-4.414;2023-11-21T22:19:50;3.22;;;1.92;;
47617;SDS011;33336;36.728;-4.414;2023-11-21T22:24:54;4.43;;;2.30;;
47617;SDS011;33336;36.728;-4.414;2023-11-21T22:29:58;3.50;;;2.15;;
47617;SDS011;33336;36.728;-4.414;2023-11-21T22:35:00;3.33;;;2.28;;
47617;SDS011;33336;36.728;-4.414;2023-11-21T22:40:06;4.40;;;2.05;;
47617;SDS011;33336;36.728;-4.414;2023-11-21T22:45:10;3.53;;;2.20;;
47617;SDS011;33336;36.728;-4.414;2023-11-21T22:50:14;4.47;;;2.60;;
47617;SDS011;33336;36.728;-4.414;2023-11-21T22:55:18;3.05;;;2.33;;
47617;SDS011;33336;36.728;-4.414;2023-11-21T23:00:22;3.33;;;2.15;;
47617;SDS011;33336;36.728;-4.414;2023-11-21T23:05:30;6.38;;;2.22;;
47617;SDS011;33336;36.728;-4.414;2023-11-21T23:10:35;3.08;;;1.67;;
47617;SDS011;33336;36.728;-4.414;2023-11-21T23:15:39;4.30;;;1.92;;
47617;SDS011;33336;36.728;-4.414;2023-11-21T23:20:48;4.27;;;1.60;;
47617;SDS011;33336;36.728;-4.414;2023-11-21T23:25:52;2.15;;;1.48;;
47617;SDS011;33336;36.728;-4.414;2023-11-21T23:30:56;2.78;;;1.85;;
47617;SDS011;33336;36.728;-4.414;2023-11-21T23:35:58;2.42;;;1.58;;
47617;SDS011;33336;36.728;-4.414;2023-11-21T23:41:03;1.75;;;1.30;;
47617;SDS011;33336;36.728;-4.414;2023-11-21T23:46:06;2.25;;;1.35;;
47617;SDS011;33336;36.728;-4.414;2023-11-21T23:51:11;2.13;;;1.52;;
47617;SDS011;33336;36.728;-4.414;2023-11-21T23:56:15;6.72;;;1.23;;
